Time;durP1;ratioP1;P1;durP2;ratioP2;P2;SDS_P1;SDS_P2;PMS_P1;PMS_P2;Temp;Humidity;BMP_temperature;BMP_pressure;BME280_temperature;BME280_humidity;BME280_pressure;Samples;Min_cycle;Max_cycle;Signal;HPM_P1;HPM_P2
2022/08/24 00:00:14;;;;;;;7.38;6.78;;;;;;;19.31;84.58;94690.59;5097297;28;20586;-69
2022/08/24 00:02:43;;;;;;;8.98;8.18;;;;;;;19.30;84.19;94682.63;5097588;28;20184;-69
2022/08/24 00:05:10;;;;;;;9.38;8.48;;;;;;;19.27;83.78;94692.63;5096146;28;20202;-69
2022/08/24 00:07:38;;;;;;;9.40;8.55;;;;;;;19.24;83.25;94694.28;5096574;28;20220;-68
2022/08/24 00:10:12;;;;;;;9.77;8.50;;;;;;;19.21;83.54;94692.31;5097415;28;20212;-68
2022/08/24 00:12:39;;;;;;;9.43;8.55;;;;;;;19.22;84.04;94701.50;5097238;28;20538;-68
2022/08/24 00:15:10;;;;;;;9.82;8.80;;;;;;;19.22;84.40;94693.91;5096251;28;20203;-68
2022/08/24 00:17:38;;;;;;;13.25;12.15;;;;;;;19.20;84.89;94701.91;5096631;28;20200;-68
2022/08/24 00:20:07;;;;;;;11.52;10.25;;;;;;;19.19;85.11;94702.31;5096219;28;20291;-68
2022/08/24 00:22:36;;;;;;;11.27;9.70;;;;;;;19.22;85.23;94702.28;5096268;28;20188;-68
2022/08/24 00:25:04;;;;;;;11.23;9.98;;;;;;;19.19;85.67;94711.50;5096397;28;20192;-68
2022/08/24 00:27:32;;;;;;;10.70;9.70;;;;;;;19.19;85.63;94717.09;5096073;28;20220;-69
2022/08/24 00:29:59;;;;;;;11.15;10.15;;;;;;;19.19;85.97;94713.50;5096949;28;20185;-69
2022/08/24 00:32:28;;;;;;;11.60;10.40;;;;;;;19.17;85.90;94713.94;5097021;28;20208;-68
2022/08/24 00:34:55;;;;;;;11.93;10.27;;;;;;;19.14;85.52;94716.78;5097053;28;20195;-69
2022/08/24 00:37:24;;;;;;;11.07;9.98;;;;;;;19.15;85.45;94727.53;5096090;28;20197;-68
2022/08/24 00:39:51;;;;;;;11.15;10.05;;;;;;;19.15;85.58;94721.16;5096019;28;20192;-69
2022/08/24 00:42:19;;;;;;;11.02;10.13;;;;;;;19.11;85.31;94715.59;5095702;28;20554;-69
2022/08/24 00:44:48;;;;;;;11.05;10.05;;;;;;;19.12;85.53;94724.78;5096596;28;20513;-68
2022/08/24 00:47:19;;;;;;;10.70;9.70;;;;;;;19.11;85.46;94717.59;5096817;28;20200;-68
2022/08/24 00:49:53;;;;;;;11.00;10.00;;;;;;;19.10;85.65;94714.03;5095521;28;20289;-67
2022/08/24 00:52:26;;;;;;;10.90;9.77;;;;;;;19.13;85.74;94715.16;5097449;28;20184;-67
2022/08/24 00:54:55;;;;;;;10.77;9.65;;;;;;;19.09;85.79;94720.81;5096736;28;20176;-67
2022/08/24 00:57:25;;;;;;;10.40;9.50;;;;;;;19.08;85.97;94716.44;5095727;28;20188;-67
2022/08/24 00:59:57;;;;;;;11.27;10.27;;;;;;;19.07;86.23;94723.22;5095567;28;20201;-67
2022/08/24 01:02:31;;;;;;;11.35;10.20;;;;;;;19.08;86.20;94726.81;5095949;28;20196;-67
2022/08/24 01:05:06;;;;;;;13.20;11.80;;;;;;;19.07;86.02;94723.22;5095467;28;20199;-67
2022/08/24 01:07:35;;;;;;;14.13;12.82;;;;;;;19.09;86.31;94725.59;5096394;28;20246;-67
2022/08/24 01:10:06;;;;;;;13.35;12.02;;;;;;;19.07;85.95;94728.03;5095996;28;20556;-67
2022/08/24 01:12:36;;;;;;;13.68;12.27;;;;;;;19.05;86.46;94727.66;5095852;28;20196;-67
2022/08/24 01:15:13;;;;;;;13.38;12.02;;;;;;;19.04;86.34;94724.06;5096020;28;20237;-67
2022/08/24 01:20:25;;;;;;;13.88;12.52;;;;;;;18.96;86.28;94737.31;5095738;28;20200;-67
2022/08/24 01:23:00;;;;;;;12.98;11.68;;;;;;;18.94;86.54;94748.09;5095802;28;20192;-68
2022/08/24 01:25:33;;;;;;;13.57;12.18;;;;;;;18.91;86.56;94739.75;5094972;28;20214;-68
2022/08/24 01:28:05;;;;;;;13.63;12.25;;;;;;;18.89;86.82;94748.56;5077667;28;20231;-68
2022/08/24 01:30:32;;;;;;;14.20;12.57;;;;;;;18.86;87.15;94754.97;5095276;28;20192;-68
2022/08/24 01:33:04;;;;;;;13.35;11.95;;;;;;;18.86;87.46;94752.19;5095915;28;20195;-68
2022/08/24 01:35:31;;;;;;;14.00;12.60;;;;;;;18.86;87.48;94749.41;5096091;28;20203;-68
2022/08/24 01:38:00;;;;;;;14.02;12.68;;;;;;;18.88;87.32;94754.56;5095974;28;20196;-68
2022/08/24 01:40:33;;;;;;;14.40;12.98;;;;;;;18.87;87.35;94761.34;5094891;28;20224;-69
2022/08/24 01:43:00;;;;;;;15.80;13.73;;;;;;;18.83;87.41;94760.59;5095043;28;20192;-69
2022/08/24 01:45:29;;;;;;;13.73;12.30;;;;;;;18.82;87.55;94764.63;5095678;28;20196;-69
2022/08/24 01:47:57;;;;;;;13.02;11.73;;;;;;;18.79;87.54;94762.63;5095165;28;20208;-70
2022/08/24 01:50:24;;;;;;;14.95;12.70;;;;;;;18.76;87.89;94747.50;5095188;28;20232;-68
2022/08/24 01:52:51;;;;;;;14.48;11.80;;;;;;;18.74;87.86;94752.72;5094298;28;20203;-68
2022/08/24 01:55:20;;;;;;;14.90;13.23;;;;;;;18.75;87.93;94748.72;5094432;28;20200;-69
2022/08/24 01:57:50;;;;;;;14.00;12.50;;;;;;;18.72;88.31;94744.72;5095581;28;20196;-70
2022/08/24 02:00:20;;;;;;;13.70;12.30;;;;;;;18.72;88.01;94738.34;5095181;28;20184;-70
2022/08/24 02:02:48;;;;;;;13.93;12.52;;;;;;;18.70;88.10;94747.13;5095392;28;20250;-70
2022/08/24 02:05:16;;;;;;;13.25;11.90;;;;;;;18.67;87.74;94756.34;5094506;28;20196;-69
2022/08/24 02:07:44;;;;;;;12.95;11.68;;;;;;;18.67;87.73;94763.91;5094145;28;20216;-68
2022/08/24 02:10:14;;;;;;;12.77;11.45;;;;;;;18.63;87.80;94769.53;5094147;28;20250;-67
2022/08/24 02:12:42;;;;;;;12.77;11.55;;;;;;;18.61;87.76;94765.56;5094256;28;20196;-67
2022/08/24 02:15:12;;;;;;;13.93;11.43;;;;;;;18.59;87.59;94766.00;5094348;28;20295;-67
2022/08/24 02:17:40;;;;;;;12.45;11.27;;;;;;;18.61;87.27;94773.94;5094330;28;20204;-67
2022/08/24 02:20:09;;;;;;;12.48;11.27;;;;;;;18.60;87.33;94775.16;5094336;28;20287;-67
2022/08/24 02:22:35;;;;;;;12.85;11.65;;;;;;;18.59;87.22;94773.53;5094972;28;20192;-67
2022/08/24 02:25:02;;;;;;;13.02;11.82;;;;;;;18.57;87.24;94782.34;5094266;28;20540;-68
2022/08/24 02:27:29;;;;;;;13.68;12.38;;;;;;;18.54;87.52;94780.38;5094369;28;20224;-68
2022/08/24 02:29:59;;;;;;;13.57;12.18;;;;;;;18.51;87.55;94784.78;5094245;28;20193;-68
2022/08/24 02:32:27;;;;;;;13.85;12.45;;;;;;;18.50;87.67;94782.41;5094951;28;20188;-68
2022/08/24 02:34:56;;;;;;;13.98;12.57;;;;;;;18.51;87.83;94792.34;5094198;28;20200;-68
2022/08/24 02:37:22;;;;;;;14.20;12.82;;;;;;;18.49;87.89;94789.19;5094001;28;20210;-68
2022/08/24 02:39:51;;;;;;;14.73;13.23;;;;;;;18.50;88.02;94788.00;5094714;28;20192;-69
2022/08/24 02:42:18;;;;;;;14.75;13.15;;;;;;;18.50;88.08;94791.56;5094787;28;20192;-69
2022/08/24 02:44:45;;;;;;;14.60;13.20;;;;;;;18.50;88.05;94790.78;5095187;28;20203;-69
2022/08/24 02:47:12;;;;;;;14.60;13.13;;;;;;;18.52;88.03;94796.75;5094178;28;20220;-69
2022/08/24 02:49:43;;;;;;;15.57;14.00;;;;;;;18.55;88.31;94795.91;5093946;28;20323;-69
2022/08/24 02:52:11;;;;;;;17.10;14.32;;;;;;;18.57;88.38;94798.31;5094386;28;20204;-69
2022/08/24 02:54:38;;;;;;;16.63;14.65;;;;;;;18.55;88.00;94801.50;5094368;28;20192;-69
2022/08/24 02:57:05;;;;;;;16.35;13.88;;;;;;;18.55;88.17;94801.50;5093840;28;20291;-69
2022/08/24 02:59:32;;;;;;;15.48;13.88;;;;;;;18.55;87.93;94801.50;5093854;28;20197;-69
2022/08/24 03:01:59;;;;;;;16.05;13.95;;;;;;;18.54;88.10;94799.91;5093619;28;20200;-69
2022/08/24 03:04:29;;;;;;;14.02;12.30;;;;;;;18.51;88.03;94804.31;5094294;28;20279;-69
2022/08/24 03:07:01;;;;;;;14.38;12.90;;;;;;;18.54;88.40;94797.13;5097004;28;20511;-69
2022/08/24 03:09:31;;;;;;;14.48;13.00;;;;;;;18.57;88.28;94787.94;5097686;28;20196;-70
2022/08/24 03:11:57;;;;;;;15.50;13.93;;;;;;;18.60;88.08;94792.69;5097617;28;20216;-70
2022/08/24 03:14:24;;;;;;;14.57;13.02;;;;;;;18.63;88.05;94797.47;5098287;28;20620;-70
2022/08/24 03:16:51;;;;;;;15.00;13.50;;;;;;;18.63;88.12;94797.47;5098030;28;20189;-70
2022/08/24 03:19:18;;;;;;;15.45;13.57;;;;;;;18.61;88.20;94797.06;5097798;28;20301;-69
2022/08/24 03:21:46;;;;;;;13.88;12.40;;;;;;;18.64;88.36;94793.47;5097644;28;20181;-70
2022/08/24 03:24:14;;;;;;;13.93;12.52;;;;;;;18.67;87.81;94794.66;5098354;28;20195;-70
2022/08/24 03:26:42;;;;;;;14.70;13.20;;;;;;;18.68;87.25;94799.81;5098003;28;20185;-69
2022/08/24 03:29:08;;;;;;;13.82;12.32;;;;;;;18.70;87.55;94794.63;5097078;28;20215;-69
2022/08/24 03:31:37;;;;;;;13.88;12.38;;;;;;;18.71;87.33;94801.81;5097228;28;20224;-68
2022/08/24 03:34:04;;;;;;;15.23;13.73;;;;;;;18.70;87.66;94800.19;5097301;28;20250;-68
2022/08/24 03:36:35;;;;;;;14.35;12.85;;;;;;;18.69;88.00;94808.97;5098608;28;20203;-69
2022/08/24 03:39:05;;;;;;;15.68;13.20;;;;;;;18.67;87.82;94812.19;5097424;28;20193;-69
2022/08/24 03:41:33;;;;;;;13.63;12.23;;;;;;;18.68;87.76;94810.97;5096823;28;20196;-69
2022/08/24 03:44:02;;;;;;;14.57;13.07;;;;;;;18.68;87.57;94805.41;5097872;28;20199;-69
2022/08/24 03:46:29;;;;;;;14.07;12.77;;;;;;;18.67;87.66;94803.81;5098057;28;20601;-69
2022/08/24 03:48:58;;;;;;;13.80;12.00;;;;;;;18.65;87.97;94809.00;5097683;28;20215;-69
2022/08/24 03:51:28;;;;;;;14.25;12.75;;;;;;;18.62;87.77;94812.63;5096784;28;20262;-69
2022/08/24 03:53:56;;;;;;;13.00;11.70;;;;;;;18.62;88.27;94812.63;5096761;28;20192;-69
2022/08/24 03:56:23;;;;;;;12.88;11.57;;;;;;;18.60;87.93;94805.88;5096907;28;20188;-68
2022/08/24 03:58:52;;;;;;;14.68;12.13;;;;;;;18.55;87.68;94804.28;5096849;28;20208;-69
2022/08/24 04:01:19;;;;;;;13.10;11.73;;;;;;;18.55;87.59;94809.09;5097410;28;20525;-68
2022/08/24 04:03:48;;;;;;;16.77;11.85;;;;;;;18.55;87.95;94806.28;5096588;28;20193;-68
2022/08/24 04:06:17;;;;;;;15.90;11.82;;;;;;;18.54;87.73;94805.50;5096864;28;20196;-68
2022/08/24 04:08:45;;;;;;;12.90;11.50;;;;;;;18.53;87.83;94812.31;5097567;28;20201;-68
2022/08/24 04:11:14;;;;;;;13.43;12.02;;;;;;;18.54;87.82;94811.09;5097466;28;20203;-68
2022/08/24 04:13:43;;;;;;;12.20;10.90;;;;;;;18.56;87.88;94808.69;5097190;28;20275;-68
2022/08/24 04:16:17;;;;;;;13.10;11.88;;;;;;;18.59;88.09;94810.66;5097138;28;20193;-70
2022/08/24 04:18:44;;;;;;;13.98;11.80;;;;;;;18.59;88.38;94816.25;5096348;28;20188;-70
2022/08/24 04:21:16;;;;;;;13.30;11.90;;;;;;;18.58;88.26;94811.84;5097206;28;20185;-68
2022/08/24 04:23:43;;;;;;;13.00;11.70;;;;;;;18.59;88.44;94807.06;5096863;28;20584;-69
2022/08/24 04:26:10;;;;;;;14.38;11.68;;;;;;;18.61;88.24;94807.47;5096259;28;20207;-70
2022/08/24 04:28:38;;;;;;;12.57;11.27;;;;;;;18.61;88.26;94815.84;5095987;28;20216;-68
2022/08/24 04:31:06;;;;;;;14.50;11.75;;;;;;;18.62;88.63;94811.81;5096234;28;20304;-69
2022/08/24 04:33:34;;;;;;;12.63;11.48;;;;;;;18.64;88.47;94813.00;5095987;28;20211;-69
2022/08/24 04:36:01;;;;;;;14.55;12.18;;;;;;;18.66;88.70;94813.38;5096875;28;20194;-68
2022/08/24 04:38:29;;;;;;;13.45;11.90;;;;;;;18.72;88.64;94822.16;5096749;28;20187;-69
2022/08/24 04:40:57;;;;;;;13.02;11.82;;;;;;;18.75;88.54;94824.91;5096998;28;20201;-69
2022/08/24 04:43:25;;;;;;;13.57;11.85;;;;;;;18.75;88.38;94822.13;5095545;28;20201;-69
2022/08/24 04:45:52;;;;;;;14.27;11.77;;;;;;;18.81;88.45;94830.88;5096839;28;20188;-69
2022/08/24 04:48:19;;;;;;;13.20;11.85;;;;;;;18.84;88.33;94826.44;5096782;28;20200;-70
2022/08/24 04:50:47;;;;;;;13.80;11.77;;;;;;;18.87;88.51;94832.00;5095709;28;20323;-71
2022/08/24 04:53:14;;;;;;;14.00;12.38;;;;;;;18.95;89.10;94827.13;5096584;28;20189;-71
2022/08/24 04:55:44;;;;;;;12.82;11.50;;;;;;;19.00;88.79;94824.72;5097050;28;20566;-71
2022/08/24 04:58:11;;;;;;;13.30;11.93;;;;;;;18.99;88.96;94819.50;5096002;28;20203;-71
2022/08/24 05:00:39;;;;;;;14.32;12.82;;;;;;;18.97;88.79;94822.75;5095928;28;20619;-71
2022/08/24 05:03:06;;;;;;;13.63;11.60;;;;;;;18.99;89.31;94817.53;5097242;28;20164;-71
2022/08/24 05:05:34;;;;;;;13.25;11.93;;;;;;;19.05;88.82;94812.28;5096367;28;20227;-70
2022/08/24 05:08:02;;;;;;;11.40;9.90;;;;;;;19.12;88.72;94819.81;5095094;28;20628;-70
2022/08/24 05:10:29;;;;;;;12.75;10.65;;;;;;;19.32;87.64;94822.78;5096510;28;20181;-69
2022/08/24 05:12:56;;;;;;;11.20;10.10;;;;;;;19.27;86.60;94824.03;5096566;28;20185;-68
2022/08/24 05:15:23;;;;;;;11.90;10.65;;;;;;;19.19;85.99;94823.31;5095142;28;20202;-69
2022/08/24 05:17:50;;;;;;;12.35;11.10;;;;;;;19.17;86.25;94816.56;5095226;28;20593;-69
2022/08/24 05:20:20;;;;;;;12.75;11.35;;;;;;;19.13;87.01;94816.59;5095724;28;20200;-69
2022/08/24 05:22:47;;;;;;;11.95;10.85;;;;;;;19.13;87.89;94818.59;5095609;28;20231;-69
2022/08/24 05:25:15;;;;;;;12.18;10.88;;;;;;;19.13;87.70;94821.38;5096267;28;20204;-69
2022/08/24 05:27:42;;;;;;;12.45;11.15;;;;;;;19.17;87.49;94822.16;5095869;28;20189;-70
2022/08/24 05:30:12;;;;;;;12.57;10.90;;;;;;;19.20;86.56;94819.31;5094214;28;20200;-69
2022/08/24 05:32:39;;;;;;;14.20;11.00;;;;;;;19.27;86.48;94817.66;5095809;28;20605;-69
2022/08/24 05:35:07;;;;;;;11.57;10.13;;;;;;;19.30;87.26;94809.25;5095138;28;20192;-70
2022/08/24 05:37:35;;;;;;;11.23;10.23;;;;;;;19.33;87.31;94810.41;5095052;28;20196;-69
2022/08/24 05:40:03;;;;;;;10.57;9.48;;;;;;;19.33;86.56;94802.81;5096062;28;20184;-72
2022/08/24 05:42:34;;;;;;;10.80;9.65;;;;;;;19.37;86.16;94809.16;5094183;28;20204;-71
2022/08/24 05:45:01;;;;;;;10.80;9.63;;;;;;;19.38;85.29;94812.75;5095108;28;20193;-71
2022/08/24 05:47:28;;;;;;;9.88;8.88;;;;;;;19.41;85.15;94809.13;5095103;28;20196;-71
2022/08/24 05:49:55;;;;;;;9.55;8.43;;;;;;;19.44;84.17;94811.09;5095281;28;20227;-68
2022/08/24 05:52:23;;;;;;;8.15;7.45;;;;;;;19.46;82.97;94808.66;5095413;28;20531;-68
2022/08/24 05:54:52;;;;;;;8.50;6.85;;;;;;;19.47;82.65;94810.25;5095927;28;20203;-68
2022/08/24 05:57:19;;;;;;;8.30;7.43;;;;;;;19.46;83.02;94800.25;5094494;28;20188;-68
2022/08/24 05:59:47;;;;;;;6.90;6.15;;;;;;;19.46;83.48;94809.47;5094591;28;20204;-70
2022/08/24 06:02:17;;;;;;;6.00;5.47;;;;;;;19.45;82.07;94812.66;5095257;28;20181;-69
2022/08/24 06:04:44;;;;;;;6.65;6.03;;;;;;;19.45;81.43;94810.66;5095306;28;20202;-68
2022/08/24 06:07:12;;;;;;;5.50;5.07;;;;;;;19.46;81.03;94805.84;5094711;28;20196;-66
2022/08/24 06:09:39;;;;;;;6.68;5.40;;;;;;;19.48;80.61;94809.03;5095539;28;20212;-66
2022/08/24 06:12:09;;;;;;;6.93;6.20;;;;;;;19.54;81.10;94815.00;5094482;28;20203;-66
2022/08/24 06:14:37;;;;;;;7.50;6.80;;;;;;;19.57;81.16;94809.34;5095557;28;20191;-72
2022/08/24 06:17:08;;;;;;;7.00;6.30;;;;;;;19.59;81.48;94812.50;5094633;28;20204;-71
2022/08/24 06:19:35;;;;;;;7.15;5.90;;;;;;;19.62;81.51;94808.91;5095957;28;20181;-69
2022/08/24 06:22:07;;;;;;;6.28;5.68;;;;;;;19.64;81.82;94814.06;5095512;28;20176;-68
2022/08/24 06:27:24;;;;;;;5.47;5.00;;;;;;;19.66;81.05;94814.47;5095248;28;20600;-70
2022/08/24 06:29:52;;;;;;;6.50;6.00;;;;;;;19.65;80.68;94810.88;5095260;28;20211;-72
2022/08/24 06:32:22;;;;;;;6.43;5.82;;;;;;;19.68;80.85;94807.25;5094366;28;20200;-72
2022/08/24 06:34:50;;;;;;;5.90;5.15;;;;;;;19.70;80.50;94806.81;5094278;28;20192;-72
2022/08/24 06:37:25;;;;;;;5.22;4.82;;;;;;;19.74;80.04;94806.78;5094302;28;20204;-73
2022/08/24 06:39:53;;;;;;;6.72;5.40;;;;;;;19.77;79.70;94806.72;5094238;28;20303;-71
2022/08/24 06:42:19;;;;;;;6.90;5.80;;;;;;;19.82;79.79;94803.47;5098703;28;20200;-69
2022/08/24 06:44:47;;;;;;;5.85;5.30;;;;;;;19.88;79.64;94810.19;5099136;28;20571;-71
2022/08/24 06:47:14;;;;;;;5.57;5.18;;;;;;;19.94;78.77;94813.31;5099226;28;20200;-70
2022/08/24 06:49:42;;;;;;;6.18;5.60;;;;;;;19.95;79.47;94807.28;5098153;28;20243;-69
2022/08/24 06:52:10;;;;;;;6.43;5.93;;;;;;;19.97;79.59;94815.25;5099584;28;20184;-71
2022/08/24 06:54:37;;;;;;;6.50;5.80;;;;;;;20.01;79.53;94815.22;5098752;28;20204;-71
2022/08/24 06:57:04;;;;;;;6.60;5.90;;;;;;;20.04;79.63;94817.97;5099097;28;20199;-71
2022/08/24 06:59:32;;;;;;;5.68;5.03;;;;;;;20.11;79.51;94819.88;5098571;28;20601;-68
2022/08/24 07:02:00;;;;;;;5.60;5.10;;;;;;;20.16;78.91;94823.03;5098645;28;20275;-68
2022/08/24 07:04:29;;;;;;;5.65;5.07;;;;;;;20.20;78.07;94826.56;5099980;28;20207;-70
2022/08/24 07:06:57;;;;;;;7.07;5.85;;;;;;;20.25;77.46;94833.69;5098443;28;20201;-70
2022/08/24 07:09:26;;;;;;;7.70;6.97;;;;;;;20.29;77.25;94830.84;5098601;28;20224;-69
2022/08/24 07:11:52;;;;;;;7.60;6.00;;;;;;;20.33;76.80;94837.97;5097658;28;20200;-68
2022/08/24 07:14:20;;;;;;;6.40;5.70;;;;;;;20.40;76.87;94842.69;5098693;28;20192;-67
2022/08/24 07:16:47;;;;;;;6.00;5.47;;;;;;;20.43;76.86;94834.22;5098407;28;20200;-68
2022/08/24 07:19:14;;;;;;;5.60;5.10;;;;;;;20.47;77.09;94836.97;5098540;28;20192;-69
2022/08/24 07:21:43;;;;;;;6.10;5.45;;;;;;;20.50;76.45;94836.16;5098258;28;20192;-68
2022/08/24 07:24:11;;;;;;;5.60;5.03;;;;;;;20.53;76.43;94845.75;5097886;28;20299;-70
2022/08/24 07:26:41;;;;;;;4.93;4.40;;;;;;;20.58;76.56;94843.25;5098986;28;20184;-69
2022/08/24 07:29:13;;;;;;;4.65;4.25;;;;;;;20.63;76.86;94847.59;5098711;28;20205;-67
2022/08/24 07:31:40;;;;;;;5.78;5.28;;;;;;;20.73;75.68;94843.81;5097751;28;20192;-68
2022/08/24 07:34:09;;;;;;;6.13;5.55;;;;;;;20.70;75.05;94846.66;5098279;28;20185;-69
2022/08/24 07:36:39;;;;;;;5.90;5.40;;;;;;;20.71;75.32;94846.25;5098260;28;20589;-71
2022/08/24 07:39:07;;;;;;;6.35;5.65;;;;;;;20.74;75.62;94841.81;5098135;28;20196;-68
2022/08/24 07:41:38;;;;;;;6.85;6.13;;;;;;;20.77;75.63;94847.38;5098378;28;20200;-68
2022/08/24 07:44:05;;;;;;;6.43;5.55;;;;;;;20.82;75.35;94846.09;5097206;28;20212;-68
2022/08/24 07:46:32;;;;;;;5.93;5.32;;;;;;;20.84;74.39;94843.66;5098426;28;20510;-67
2022/08/24 07:48:58;;;;;;;6.38;5.75;;;;;;;20.85;73.41;94842.44;5098149;28;20216;-68
2022/08/24 07:51:26;;;;;;;5.97;5.38;;;;;;;20.86;73.45;94830.00;5097664;28;20660;-70
2022/08/24 07:53:55;;;;;;;5.93;5.43;;;;;;;20.89;74.00;94829.94;5096709;28;20286;-70
2022/08/24 07:56:27;;;;;;;6.05;5.55;;;;;;;20.93;73.78;94832.69;5097845;28;20195;-70
2022/08/24 07:58:55;;;;;;;6.72;5.97;;;;;;;20.97;74.04;94824.22;5098027;28;20196;-70
2022/08/24 08:01:24;;;;;;;7.43;6.57;;;;;;;21.03;74.03;94823.31;5097929;28;20181;-70
2022/08/24 08:03:51;;;;;;;6.57;5.90;;;;;;;21.07;73.98;94820.47;5096878;28;20205;-69
2022/08/24 08:06:18;;;;;;;6.00;5.38;;;;;;;21.09;73.43;94818.78;5096821;28;20250;-70
2022/08/24 08:08:46;;;;;;;6.05;5.55;;;;;;;21.13;73.44;94819.53;5097728;28;20212;-70
2022/08/24 08:11:15;;;;;;;5.75;5.00;;;;;;;21.23;72.71;94822.56;5097787;28;20204;-70
2022/08/24 08:13:41;;;;;;;5.60;5.10;;;;;;;21.38;71.66;94815.50;5097929;28;20188;-69
2022/08/24 08:16:11;;;;;;;5.13;4.63;;;;;;;21.46;71.50;94819.78;5096762;28;20192;-68
2022/08/24 08:18:37;;;;;;;5.32;4.85;;;;;;;21.53;71.29;94813.22;5097747;28;20194;-68
2022/08/24 08:24:13;;;;;;;5.80;5.30;;;;;;;21.61;71.74;94809.88;5097740;28;20180;-68
2022/08/24 08:26:40;;;;;;;5.90;5.30;;;;;;;21.78;71.69;94815.53;5097758;28;20192;-69
2022/08/24 08:29:09;;;;;;;6.00;5.47;;;;;;;21.77;70.78;94811.94;5096421;28;20269;-69
2022/08/24 08:31:40;;;;;;;5.55;5.03;;;;;;;21.76;70.91;94812.38;5097322;28;20184;-71
2022/08/24 08:34:10;;;;;;;5.38;4.95;;;;;;;21.75;70.88;94814.41;5097449;28;20483;-70
2022/08/24 08:36:38;;;;;;;6.25;5.65;;;;;;;21.73;70.74;94808.41;5096397;28;20200;-70
2022/08/24 08:39:06;;;;;;;5.55;4.25;;;;;;;21.80;69.79;94804.69;5096806;28;20185;-70
2022/08/24 08:42:09;;;;;;;5.82;5.35;;;;;;;21.85;70.84;94801.38;5096221;28;20205;-70
2022/08/24 08:44:48;;;;;;;5.57;4.90;;;;;;;21.94;69.86;94801.59;5018461;28;20205;-70
2022/08/24 08:47:29;;;;;;;5.05;4.65;;;;;;;22.03;68.85;94796.16;5090187;28;20227;-70
2022/08/24 08:50:06;;;;;;;5.88;5.38;;;;;;;22.08;68.59;94792.84;5096529;28;20259;-71
2022/08/24 08:53:17;;;;;;;5.32;4.82;;;;;;;22.09;69.34;94797.25;5095511;28;20627;-70
2022/08/24 08:55:48;;;;;;;5.38;4.97;;;;;;;22.21;67.54;94797.81;5034223;28;20228;-70
2022/08/24 08:58:43;;;;;;;6.32;5.72;;;;;;;22.33;67.49;94800.75;5096805;28;20197;-69
2022/08/24 09:01:16;;;;;;;5.07;4.68;;;;;;;22.45;66.38;94799.28;5097616;28;20191;-70
2022/08/24 09:04:01;;;;;;;5.15;4.55;;;;;;;22.62;65.53;94796.47;5096600;28;20185;-70
2022/08/24 09:06:43;;;;;;;4.80;4.40;;;;;;;22.72;64.71;94801.06;5097819;28;20187;-70
2022/08/24 09:09:25;;;;;;;5.03;4.63;;;;;;;22.74;64.42;94798.63;5096209;28;20224;-70
2022/08/24 09:12:00;;;;;;;4.43;4.03;;;;;;;22.81;63.37;94804.06;5095463;28;20309;-72
2022/08/24 09:14:43;;;;;;;4.60;4.30;;;;;;;22.83;63.67;94805.19;5096650;28;20203;-72
2022/08/24 09:17:21;;;;;;;4.97;4.53;;;;;;;22.87;63.99;94796.66;5096032;28;20207;-70
2022/08/24 09:20:09;;;;;;;4.35;3.95;;;;;;;22.96;64.02;94801.72;5096076;28;20196;-70
2022/08/24 09:22:42;;;;;;;4.20;3.90;;;;;;;22.98;63.54;94805.66;5096274;28;20191;-71
2022/08/24 09:25:23;;;;;;;3.78;3.47;;;;;;;23.07;62.73;94796.63;5095317;28;20258;-70
2022/08/24 09:28:01;;;;;;;4.60;4.20;;;;;;;23.13;62.86;94796.88;5096300;28;20558;-71
2022/08/24 09:30:33;;;;;;;4.15;3.75;;;;;;;23.11;62.26;94796.53;5095603;28;20223;-73
2022/08/24 09:33:06;;;;;;;4.70;4.30;;;;;;;23.09;62.37;94793.34;5095931;28;20290;-72
2022/08/24 09:36:06;;;;;;;4.72;4.20;;;;;;;23.17;63.25;94794.78;5096169;28;20191;-72
2022/08/24 09:38:48;;;;;;;5.50;4.05;;;;;;;23.28;62.94;94787.63;5095077;28;20192;-70
2022/08/24 09:41:45;;;;;;;4.30;4.00;;;;;;;23.32;62.95;94781.91;5095269;28;20206;-70
2022/08/24 09:44:48;;;;;;;5.15;4.43;;;;;;;23.45;63.69;94779.13;5095485;28;20184;-69
2022/08/24 09:47:40;;;;;;;4.78;4.38;;;;;;;23.50;62.35;94770.94;5095644;28;20213;-69
2022/08/24 09:50:35;;;;;;;4.47;4.07;;;;;;;23.59;62.32;94772.31;5095377;28;20279;-69
2022/08/24 09:53:40;;;;;;;5.60;4.43;;;;;;;23.59;61.18;94767.47;5041340;28;20294;-70
2022/08/24 09:56:25;;;;;;;4.32;3.92;;;;;;;23.55;61.28;94756.31;5094584;28;20200;-69
2022/08/24 10:02:17;;;;;;;7.28;4.68;;;;;;;23.75;61.26;94749.78;5093934;28;20200;-70
2022/08/24 10:04:54;;;;;;;4.75;4.35;;;;;;;23.80;60.98;94752.03;5096367;28;20188;-71
2022/08/24 10:07:26;;;;;;;5.00;4.50;;;;;;;23.88;60.73;94741.34;5096485;28;20194;-70
2022/08/24 10:10:13;;;;;;;5.10;4.70;;;;;;;24.00;61.42;94734.94;5095699;28;20212;-69
2022/08/24 10:12:52;;;;;;;4.85;4.45;;;;;;;24.08;60.21;94727.88;5096058;28;20196;-70
2022/08/24 10:15:23;;;;;;;5.13;4.60;;;;;;;24.13;59.11;94732.94;5095401;28;20191;-69
2022/08/24 10:18:03;;;;;;;6.22;5.07;;;;;;;24.23;58.80;94731.03;5096154;28;20184;-69
2022/08/24 10:20:47;;;;;;;5.25;4.72;;;;;;;24.28;57.79;94724.84;5095275;28;20191;-69
2022/08/24 10:23:48;;;;;;;5.45;4.75;;;;;;;24.35;57.38;94727.44;5095287;28;20213;-70
2022/08/24 10:26:20;;;;;;;5.18;4.60;;;;;;;24.39;57.41;94716.03;5095785;28;20218;-70
2022/08/24 10:29:10;;;;;;;4.95;4.55;;;;;;;24.40;57.20;94723.28;5095993;28;20215;-69
2022/08/24 10:31:44;;;;;;;6.32;4.45;;;;;;;24.47;58.11;94720.22;5095307;28;20220;-68
2022/08/24 10:34:23;;;;;;;4.90;4.50;;;;;;;24.50;56.55;94724.97;5096211;28;20188;-69
2022/08/24 10:37:10;;;;;;;5.80;5.05;;;;;;;24.47;55.94;94728.69;5095719;28;20200;-69
2022/08/24 10:40:01;;;;;;;5.07;4.68;;;;;;;24.35;56.09;94727.44;5096228;28;20188;-69
2022/08/24 10:46:25;;;;;;;5.00;4.50;;;;;;;24.44;54.33;94730.41;5095521;28;20593;-69
2022/08/24 10:49:32;;;;;;;5.32;4.70;;;;;;;24.54;55.78;94722.03;5095410;28;20188;-69
2022/08/24 10:52:43;;;;;;;5.22;4.72;;;;;;;24.74;55.34;94719.78;5095475;28;20253;-68
2022/08/24 10:55:18;;;;;;;5.00;4.50;;;;;;;24.85;55.61;94725.84;5096458;28;20271;-69
2022/08/24 10:57:54;;;;;;;5.25;4.72;;;;;;;24.93;55.20;94724.34;5095054;28;20266;-69
2022/08/24 11:00:24;;;;;;;5.03;4.60;;;;;;;24.97;54.76;94718.59;5095223;28;20282;-68
2022/08/24 11:03:06;;;;;;;5.75;5.25;;;;;;;24.89;54.24;94729.31;5094270;28;20537;-69
2022/08/24 11:05:39;;;;;;;5.32;4.50;;;;;;;24.94;55.53;94711.03;5094649;28;20539;-68
2022/08/24 11:08:07;;;;;;;5.63;5.10;;;;;;;25.02;55.22;94714.38;5095141;28;20636;-68
2022/08/24 11:10:36;;;;;;;6.00;4.68;;;;;;;25.13;56.28;94712.03;5094729;28;20216;-68
2022/08/24 11:13:20;;;;;;;5.18;4.68;;;;;;;25.21;55.57;94713.38;5094358;28;20204;-70
2022/08/24 11:15:52;;;;;;;5.30;4.70;;;;;;;25.29;54.14;94709.03;5094406;28;20203;-70
2022/08/24 11:18:21;;;;;;;5.70;4.47;;;;;;;25.35;55.45;94707.22;5094977;28;20198;-71
2022/08/24 11:20:50;;;;;;;5.65;4.80;;;;;;;25.24;54.83;94706.00;5094865;28;20204;-71
2022/08/24 11:23:20;;;;;;;4.78;4.30;;;;;;;25.10;55.35;94707.28;5094410;28;20201;-70
2022/08/24 11:25:58;;;;;;;5.10;4.38;;;;;;;24.94;55.52;94703.34;5094392;28;20199;-69
2022/08/24 11:28:30;;;;;;;5.50;4.90;;;;;;;24.82;55.52;94701.34;5097838;28;20242;-72
2022/08/24 11:30:57;;;;;;;5.07;4.60;;;;;;;24.80;56.16;94703.88;5098484;28;20224;-70
2022/08/24 11:33:29;;;;;;;4.78;4.38;;;;;;;24.91;56.71;94700.66;5099064;28;20196;-70
2022/08/24 11:36:00;;;;;;;6.00;4.63;;;;;;;25.00;57.20;94697.94;5098261;28;20219;-68
2022/08/24 11:38:29;;;;;;;5.47;4.90;;;;;;;25.13;56.90;94695.91;5098805;28;20196;-68
2022/08/24 11:41:02;;;;;;;5.72;5.03;;;;;;;25.12;56.02;94697.13;5097671;28;20204;-68
2022/08/24 11:43:38;;;;;;;4.97;4.57;;;;;;;25.12;56.45;94699.16;5097466;28;20201;-68
2022/08/24 11:46:14;;;;;;;6.13;4.22;;;;;;;25.12;56.17;94699.94;5097507;28;20199;-68
2022/08/24 11:48:52;;;;;;;5.13;4.63;;;;;;;25.14;57.05;94682.56;5097724;28;20204;-68
2022/08/24 11:51:29;;;;;;;5.25;4.60;;;;;;;25.14;57.48;94686.19;5097757;28;20246;-68
2022/08/24 11:54:04;;;;;;;5.63;4.63;;;;;;;25.21;56.56;94687.97;5097342;28;20203;-68
2022/08/24 11:56:34;;;;;;;5.68;4.80;;;;;;;25.17;56.13;94687.31;5098819;28;20184;-66
2022/08/24 11:59:05;;;;;;;5.40;4.88;;;;;;;25.08;56.42;94698.47;5098212;28;20214;-66
2022/08/24 12:01:36;;;;;;;6.07;4.50;;;;;;;24.99;56.28;94690.72;5097963;28;20195;-66